Time;durP1;ratioP1;P1;durP2;ratioP2;P2;SDS_P1;SDS_P2;PMS_P1;PMS_P2;Temp;Humidity;BMP_temperature;BMP_pressure;BME280_temperature;BME280_humidity;BME280_pressure;Samples;Min_cycle;Max_cycle;Signal;HPM_P1;HPM_P2
2022/02/03 00:01:51;;;;;;;;;;;24.10;83.70;;;;;;5093778;28;19912;-60
2022/02/03 00:04:20;;;;;;;;;;;24.10;83.60;;;;;;5093157;28;19912;-48
2022/02/03 00:06:53;;;;;;;;;;;24.10;83.30;;;;;;5093144;28;19908;-52
2022/02/03 00:09:49;;;;;;;;;;;24.10;83.30;;;;;;5093852;28;19923;-56
2022/02/03 00:25:30;;;;;;;;;;;24.50;82.40;;;;;;5093786;28;20009;-65
2022/02/03 00:28:13;;;;;;;;;;;24.50;82.40;;;;;;5093245;28;19946;-53
2022/02/03 00:49:08;;;;;;;;;;;24.90;81.00;;;;;;5093636;28;19934;-57
2022/02/03 00:51:36;;;;;;;;;;;24.90;80.00;;;;;;5093111;28;20282;-61
2022/02/03 00:54:08;;;;;;;;;;;25.00;80.10;;;;;;5093189;28;19915;-59
2022/02/03 00:56:35;;;;;;;;;;;25.00;80.50;;;;;;5093418;28;19908;-59
2022/02/03 00:59:09;;;;;;;;;;;25.00;79.60;;;;;;5093286;28;19908;-54
2022/02/03 01:02:02;;;;;;;;;;;25.10;79.80;;;;;;5092942;28;19912;-59
2022/02/03 01:04:29;;;;;;;;;;;25.10;79.10;;;;;;5091830;28;19919;-56
2022/02/03 01:06:57;;;;;;;;;;;25.20;79.30;;;;;;5092883;28;19963;-55
2022/02/03 01:09:25;;;;;;;;;;;25.20;78.80;;;;;;5092904;28;19966;-55
2022/02/03 01:12:23;;;;;;;;;;;25.20;78.80;;;;;;5091680;28;19908;-55
2022/02/03 01:15:02;;;;;;;;;;;25.20;78.70;;;;;;5092261;28;19924;-54
2022/02/03 01:17:45;;;;;;;;;;;25.20;79.30;;;;;;5092899;28;19912;-60
2022/02/03 01:45:26;;;;;;;;;;;25.50;77.80;;;;;;5096300;28;19915;-58
2022/02/03 01:48:40;;;;;;;;;;;25.50;77.20;;;;;;5095914;28;19915;-58
2022/02/03 01:53:30;;;;;;;;;;;25.60;77.70;;;;;;5096740;28;19942;-59
2022/02/03 01:56:05;;;;;;;;;;;25.70;77.70;;;;;;5096126;28;19908;-56
2022/02/03 01:58:44;;;;;;;;;;;25.70;76.80;;;;;;5095990;28;19965;-57
2022/02/03 02:01:12;;;;;;;;;;;25.80;77.00;;;;;;5095869;28;19908;-55
2022/02/03 02:03:46;;;;;;;;;;;25.80;77.00;;;;;;5095840;28;19944;-59
2022/02/03 02:06:20;;;;;;;;;;;25.80;77.60;;;;;;5095871;28;19954;-53
2022/02/03 02:08:57;;;;;;;;;;;25.80;77.40;;;;;;5096613;28;19908;-51
2022/02/03 02:12:02;;;;;;;;;;;25.80;75.90;;;;;;5094903;28;19943;-51
2022/02/03 02:15:08;;;;;;;;;;;25.90;76.70;;;;;;5095862;28;19920;-55
2022/02/03 02:39:23;;;;;;;;;;;25.90;77.30;;;;;;5095741;28;19914;-56
2022/02/03 02:44:42;;;;;;;;;;;25.80;77.20;;;;;;5079003;28;19908;-49
2022/02/03 02:47:15;;;;;;;;;;;25.80;76.80;;;;;;5094909;28;19909;-52
2022/02/03 02:49:56;;;;;;;;;;;25.80;76.30;;;;;;5094911;28;19908;-53
2022/02/03 02:52:30;;;;;;;;;;;25.80;76.60;;;;;;5095244;28;19946;-52
2022/02/03 03:31:45;;;;;;;;;;;25.90;76.70;;;;;;5094343;28;19915;-59
2022/02/03 03:34:31;;;;;;;;;;;26.00;76.50;;;;;;5094102;28;19909;-57
2022/02/03 03:36:59;;;;;;;;;;;26.00;76.30;;;;;;5093581;28;19908;-59
2022/02/03 03:39:29;;;;;;;;;;;26.00;76.00;;;;;;5093656;28;19908;-48
2022/02/03 03:42:01;;;;;;;;;;;26.00;76.10;;;;;;5093411;28;19919;-55
2022/02/03 03:44:29;;;;;;;;;;;26.00;76.40;;;;;;5093521;28;19963;-60
2022/02/03 03:47:00;;;;;;;;;;;25.90;76.80;;;;;;5093425;28;20279;-58
2022/02/03 03:49:38;;;;;;;;;;;26.00;77.40;;;;;;5093537;28;19993;-60
2022/02/03 03:52:09;;;;;;;;;;;25.90;76.70;;;;;;5093171;28;19915;-56
2022/02/03 03:54:44;;;;;;;;;;;25.90;76.70;;;;;;5091956;28;20061;-58
2022/02/03 03:57:35;;;;;;;;;;;25.90;77.40;;;;;;5092901;28;19947;-59
2022/02/03 04:41:08;;;;;;;;;;;25.70;78.00;;;;;;5092797;28;19931;-54
2022/02/03 04:55:52;;;;;;;;;;;25.50;78.90;;;;;;5069050;28;19908;-61
2022/02/03 05:01:57;;;;;;;;;;;25.50;79.60;;;;;;5093140;28;19918;-58
2022/02/03 05:04:39;;;;;;;;;;;25.50;79.60;;;;;;5092287;28;19919;-58
2022/02/03 05:12:50;;;;;;;;;;;25.40;80.40;;;;;;5096619;28;19908;-53
2022/02/03 05:18:39;;;;;;;;;;;25.30;80.00;;;;;;5097252;28;20332;-60
2022/02/03 05:24:34;;;;;;;;;;;25.30;80.80;;;;;;5095708;28;19955;-59
2022/02/03 05:32:04;;;;;;;;;;;25.20;80.20;;;;;;5095416;28;19908;-56
2022/02/03 05:47:11;;;;;;;;;;;25.20;80.50;;;;;;5095573;28;20262;-58
2022/02/03 05:50:27;;;;;;;;;;;25.20;80.90;;;;;;5095831;28;20251;-55
2022/02/03 05:52:43;;;;;;;;;;;25.20;79.60;;;;;;5092588;28;19934;-55
2022/02/03 05:55:37;;;;;;;;;;;25.20;80.50;;;;;;5095635;28;19908;-55
2022/02/03 06:05:56;;;;;;;;;;;25.20;79.60;;;;;;5095664;28;19912;-58
2022/02/03 06:08:35;;;;;;;;;;;25.30;80.10;;;;;;5095371;28;19924;-59
2022/02/03 06:14:02;;;;;;;;;;;25.20;79.60;;;;;;5094575;28;19977;-59
2022/02/03 06:17:28;;;;;;;;;;;25.30;79.40;;;;;;5095092;28;19920;-61
2022/02/03 06:27:22;;;;;;;;;;;25.30;79.70;;;;;;5094794;28;19908;-55
2022/02/03 06:27:42;;;;;;;;;;;25.40;79.50;;;;;;5094114;28;19953;-60
2022/02/03 06:30:09;;;;;;;;;;;25.40;79.40;;;;;;5094612;28;19919;-57
2022/02/03 06:32:39;;;;;;;;;;;25.40;79.40;;;;;;5094828;28;19921;-60
2022/02/03 06:35:07;;;;;;;;;;;25.40;79.10;;;;;;5094544;28;19912;-60
2022/02/03 06:37:34;;;;;;;;;;;25.40;79.10;;;;;;5094775;28;19919;-62
2022/02/03 06:40:02;;;;;;;;;;;25.40;79.00;;;;;;5094495;28;19915;-61
2022/02/03 06:42:29;;;;;;;;;;;25.40;78.80;;;;;;5094243;28;19920;-57
2022/02/03 06:45:09;;;;;;;;;;;25.40;79.00;;;;;;5094656;28;19909;-56
2022/02/03 06:48:14;;;;;;;;;;;25.40;78.40;;;;;;5094798;28;19999;-53
2022/02/03 06:51:03;;;;;;;;;;;25.40;78.40;;;;;;5093320;28;20375;-57
2022/02/03 06:53:24;;;;;;;;;;;25.40;79.20;;;;;;5094048;28;19913;-59
2022/02/03 06:56:10;;;;;;;;;;;25.40;78.90;;;;;;5092944;28;19914;-56
2022/02/03 06:58:51;;;;;;;;;;;25.30;79.00;;;;;;5094426;28;19915;-62
2022/02/03 07:01:29;;;;;;;;;;;25.30;79.40;;;;;;5093606;28;19912;-55
2022/02/03 07:04:00;;;;;;;;;;;25.30;79.00;;;;;;5094274;28;19916;-56
2022/02/03 07:06:29;;;;;;;;;;;25.30;78.90;;;;;;5094146;28;20019;-59
2022/02/03 07:08:56;;;;;;;;;;;25.30;78.30;;;;;;5093843;28;19908;-56
2022/02/03 07:11:24;;;;;;;;;;;25.30;78.90;;;;;;5093939;28;20279;-62
2022/02/03 07:13:51;;;;;;;;;;;25.20;78.60;;;;;;5093506;28;19923;-52
2022/02/03 07:16:17;;;;;;;;;;;25.20;79.30;;;;;;5094146;28;19912;-58
2022/02/03 07:18:44;;;;;;;;;;;25.30;79.00;;;;;;5093871;28;19962;-52
2022/02/03 07:21:13;;;;;;;;;;;25.20;79.10;;;;;;5093471;28;20024;-55
2022/02/03 07:23:40;;;;;;;;;;;25.20;79.20;;;;;;5094215;28;19973;-56
2022/02/03 07:26:06;;;;;;;;;;;25.20;79.40;;;;;;5093865;28;19915;-55
2022/02/03 07:28:36;;;;;;;;;;;25.20;79.30;;;;;;5093650;28;19908;-56
2022/02/03 07:31:03;;;;;;;;;;;25.10;79.40;;;;;;5093310;28;19909;-58
2022/02/03 07:33:32;;;;;;;;;;;25.10;79.60;;;;;;5093652;28;19954;-58
2022/02/03 07:35:59;;;;;;;;;;;25.10;79.90;;;;;;5093201;28;19927;-56
2022/02/03 07:38:26;;;;;;;;;;;25.10;80.00;;;;;;5091748;28;19908;-58
2022/02/03 07:40:53;;;;;;;;;;;25.10;80.10;;;;;;5093186;28;19921;-50
2022/02/03 07:43:21;;;;;;;;;;;25.00;80.00;;;;;;5093135;28;19922;-56
2022/02/03 07:45:48;;;;;;;;;;;25.00;79.80;;;;;;5093813;28;20512;-50
2022/02/03 07:48:18;;;;;;;;;;;25.00;79.80;;;;;;5093311;28;19998;-57
2022/02/03 07:50:44;;;;;;;;;;;24.90;79.80;;;;;;5093198;28;20007;-58
2022/02/03 07:53:11;;;;;;;;;;;24.90;79.70;;;;;;5093342;28;20374;-58
2022/02/03 07:55:38;;;;;;;;;;;24.90;79.70;;;;;;5093209;28;19963;-59
2022/02/03 07:58:04;;;;;;;;;;;24.90;79.30;;;;;;5093137;28;19915;-60
2022/02/03 08:00:31;;;;;;;;;;;24.80;78.50;;;;;;5093249;28;19931;-53
2022/02/03 08:02:58;;;;;;;;;;;24.80;78.50;;;;;;5092804;28;19920;-54
2022/02/03 08:05:26;;;;;;;;;;;24.70;76.30;;;;;;5092895;28;19908;-55
2022/02/03 08:08:11;;;;;;;;;;;24.60;76.00;;;;;;5091204;28;19908;-59
2022/02/03 08:10:48;;;;;;;;;;;24.60;77.10;;;;;;5092546;28;19920;-58
2022/02/03 08:13:33;;;;;;;;;;;24.50;76.20;;;;;;5093113;28;19950;-55
2022/02/03 08:16:06;;;;;;;;;;;24.50;77.60;;;;;;5092584;28;19920;-57
2022/02/03 08:18:33;;;;;;;;;;;24.40;79.60;;;;;;5092348;28;20026;-58
2022/02/03 08:21:04;;;;;;;;;;;24.40;80.60;;;;;;5092613;28;19919;-59
2022/02/03 08:26:11;;;;;;;;;;;24.40;83.40;;;;;;5092793;28;19916;-57
2022/02/03 08:31:21;;;;;;;;;;;24.40;85.10;;;;;;5092600;28;19924;-55
2022/02/03 08:33:53;;;;;;;;;;;24.50;85.80;;;;;;5092280;28;20427;-59
2022/02/03 08:36:20;;;;;;;;;;;24.40;86.20;;;;;;5093079;28;19915;-60
2022/02/03 08:38:53;;;;;;;;;;;24.40;87.00;;;;;;5092479;28;19920;-59
2022/02/03 08:41:21;;;;;;;;;;;24.40;87.00;;;;;;5093000;28;19913;-58
2022/02/03 08:43:48;;;;;;;;;;;24.40;86.90;;;;;;5092713;28;19916;-61
2022/02/03 08:46:15;;;;;;;;;;;24.40;86.20;;;;;;5093004;28;19948;-60
2022/02/03 08:48:45;;;;;;;;;;;24.30;84.70;;;;;;5092877;28;19908;-55
2022/02/03 08:51:13;;;;;;;;;;;24.30;84.10;;;;;;5091867;28;19978;-58
2022/02/03 08:53:45;;;;;;;;;;;24.30;84.80;;;;;;5093210;28;19912;-58
2022/02/03 08:56:36;;;;;;;;;;;24.30;84.60;;;;;;5123902;27;20355;-59
2022/02/03 08:59:22;;;;;;;;;;;24.30;85.20;;;;;;5092718;28;19950;-60
2022/02/03 09:35:30;;;;;;;;;;;24.10;81.00;;;;;;5093238;28;20337;-62
2022/02/03 09:38:27;;;;;;;;;;;24.10;81.10;;;;;;5092318;28;19977;-58
2022/02/03 09:52:36;;;;;;;;;;;24.00;80.50;;;;;;5092925;28;19930;-62
2022/02/03 09:55:06;;;;;;;;;;;24.00;80.40;;;;;;5119731;27;20003;-62
2022/02/03 09:57:42;;;;;;;;;;;24.00;80.00;;;;;;5096167;28;19909;-58
2022/02/03 10:00:33;;;;;;;;;;;24.00;80.30;;;;;;5096166;28;19919;-62
2022/02/03 10:03:03;;;;;;;;;;;23.90;80.10;;;;;;5095803;28;19916;-60
2022/02/03 10:05:43;;;;;;;;;;;23.90;80.10;;;;;;5096380;28;19908;-60
2022/02/03 10:08:13;;;;;;;;;;;23.90;80.10;;;;;;5126047;27;19912;-61
2022/02/03 10:10:43;;;;;;;;;;;23.90;80.20;;;;;;5096303;28;19912;-59
2022/02/03 10:13:20;;;;;;;;;;;23.90;80.10;;;;;;5095666;28;19908;-60
2022/02/03 10:15:46;;;;;;;;;;;23.90;80.10;;;;;;5095743;28;20268;-61
2022/02/03 10:18:21;;;;;;;;;;;23.90;80.00;;;;;;5095268;28;19908;-56
2022/02/03 10:20:48;;;;;;;;;;;23.90;80.10;;;;;;5095040;28;19912;-57
2022/02/03 10:23:21;;;;;;;;;;;23.90;80.20;;;;;;5095094;28;19916;-60
2022/02/03 10:25:51;;;;;;;;;;;23.80;80.10;;;;;;5095239;28;20381;-51
2022/02/03 10:28:18;;;;;;;;;;;23.80;80.10;;;;;;5095100;28;19912;-57
2022/02/03 10:30:51;;;;;;;;;;;23.80;80.20;;;;;;5095030;28;19954;-53
2022/02/03 10:33:19;;;;;;;;;;;23.80;80.10;;;;;;5093960;28;19912;-57
2022/02/03 10:35:51;;;;;;;;;;;23.80;80.10;;;;;;5096057;28;19908;-59
2022/02/03 10:46:42;;;;;;;;;;;23.70;79.90;;;;;;5094546;28;19961;-57
2022/02/03 11:05:25;;;;;;;;;;;23.60;79.60;;;;;;5094369;28;19916;-59
2022/02/03 11:07:59;;;;;;;;;;;23.60;79.70;;;;;;5094067;28;20263;-60
2022/02/03 11:12:55;;;;;;;;;;;23.60;79.90;;;;;;5094095;28;20319;-61
2022/02/03 11:15:26;;;;;;;;;;;23.60;80.00;;;;;;5093858;28;19920;-52
2022/02/03 11:17:54;;;;;;;;;;;23.50;79.90;;;;;;5093752;28;19908;-56
2022/02/03 11:20:23;;;;;;;;;;;23.50;80.00;;;;;;5093881;28;20006;-60
2022/02/03 11:22:57;;;;;;;;;;;23.50;80.10;;;;;;5093934;28;19916;-54
2022/02/03 11:25:41;;;;;;;;;;;23.50;80.00;;;;;;5093853;28;19915;-61
2022/02/03 11:36:13;;;;;;;;;;;23.40;79.80;;;;;;5094108;28;20369;-57
2022/02/03 11:39:30;;;;;;;;;;;23.40;79.90;;;;;;5093803;28;19912;-54
2022/02/03 11:44:23;;;;;;;;;;;23.40;79.50;;;;;;5093684;28;19923;-56
2022/02/03 11:47:29;;;;;;;;;;;23.40;79.70;;;;;;5094696;28;19951;-55
2022/02/03 11:55:31;;;;;;;;;;;23.30;79.60;;;;;;5094608;28;19908;-59
2022/02/03 12:03:54;;;;;;;;;;;23.30;79.40;;;;;;5090591;28;20382;-60
2022/02/03 12:12:36;;;;;;;;;;;23.20;79.40;;;;;;5093233;28;19954;-59
2022/02/03 12:18:44;;;;;;;;;;;23.20;79.30;;;;;;5094306;28;19912;-56
2022/02/03 12:20:34;;;;;;;;;;;23.20;79.30;;;;;;5089647;28;19908;-56
2022/02/03 12:23:22;;;;;;;;;;;23.20;79.10;;;;;;5093068;28;19916;-55
2022/02/03 12:25:56;;;;;;;;;;;23.20;79.20;;;;;;5093051;28;20064;-58
2022/02/03 12:28:31;;;;;;;;;;;23.20;79.00;;;;;;5124077;27;19997;-56
2022/02/03 12:32:04;;;;;;;;;;;23.20;78.90;;;;;;5092034;28;19911;-57
2022/02/03 12:39:13;;;;;;;;;;;23.20;78.70;;;;;;5092964;28;20004;-59
2022/02/03 12:42:00;;;;;;;;;;;23.20;78.80;;;;;;5092323;28;19966;-56
2022/02/03 12:44:28;;;;;;;;;;;23.20;78.70;;;;;;5093224;28;19912;-52
2022/02/03 12:47:02;;;;;;;;;;;23.20;78.50;;;;;;5092962;28;19999;-58
2022/02/03 12:49:32;;;;;;;;;;;23.10;78.40;;;;;;5092968;28;19920;-62
2022/02/03 12:51:58;;;;;;;;;;;23.10;78.30;;;;;;5092994;28;20346;-58
2022/02/03 12:54:26;;;;;;;;;;;23.10;78.20;;;;;;5093108;28;20274;-55
2022/02/03 12:57:02;;;;;;;;;;;23.10;78.00;;;;;;5092554;28;19943;-57
2022/02/03 12:59:31;;;;;;;;;;;23.10;78.00;;;;;;5092492;28;19988;-58
2022/02/03 13:01:58;;;;;;;;;;;23.10;77.90;;;;;;5092170;28;20275;-56
2022/02/03 13:04:25;;;;;;;;;;;23.10;78.10;;;;;;5092809;28;20035;-49
2022/02/03 13:07:03;;;;;;;;;;;23.10;77.90;;;;;;5092579;28;20333;-61
2022/02/03 13:09:35;;;;;;;;;;;23.10;78.10;;;;;;5092723;28;19954;-60
2022/02/03 13:12:25;;;;;;;;;;;23.10;78.10;;;;;;5092402;28;19908;-54
2022/02/03 13:14:55;;;;;;;;;;;23.10;78.00;;;;;;5092281;28;19927;-55
2022/02/03 13:17:35;;;;;;;;;;;23.10;78.10;;;;;;5092823;28;20007;-57
2022/02/03 13:20:14;;;;;;;;;;;23.00;78.00;;;;;;5090942;28;20363;-54
2022/02/03 13:22:54;;;;;;;;;;;23.00;78.10;;;;;;5092338;28;19923;-58
2022/02/03 13:25:29;;;;;;;;;;;23.00;78.10;;;;;;5092190;28;19907;-59
2022/02/03 13:28:13;;;;;;;;;;;23.00;78.10;;;;;;5092237;28;19908;-57
2022/02/03 13:30:58;;;;;;;;;;;23.00;78.10;;;;;;5094658;28;20342;-59
2022/02/03 13:33:30;;;;;;;;;;;23.00;78.20;;;;;;5096319;28;19909;-59
2022/02/03 13:36:06;;;;;;;;;;;22.90;78.20;;;;;;5096175;28;19971;-56
2022/02/03 13:41:10;;;;;;;;;;;22.90;78.20;;;;;;5095963;28;19915;-57
2022/02/03 13:43:40;;;;;;;;;;;22.90;78.20;;;;;;5096015;28;20263;-60
2022/02/03 13:46:08;;;;;;;;;;;22.90;78.30;;;;;;5096124;28;20309;-57
2022/02/03 13:48:38;;;;;;;;;;;22.90;78.30;;;;;;5096280;28;19912;-57
2022/02/03 13:51:08;;;;;;;;;;;22.80;78.20;;;;;;5096027;28;19908;-59
2022/02/03 13:53:44;;;;;;;;;;;22.80;78.40;;;;;;5096155;28;20258;-55
2022/02/03 14:10:46;;;;;;;;;;;22.70;78.70;;;;;;5095993;28;19954;-57
2022/02/03 14:21:41;;;;;;;;;;;22.60;78.90;;;;;;5096059;28;19933;-59
2022/02/03 14:29:29;;;;;;;;;;;22.50;79.00;;;;;;5095541;28;19954;-56
2022/02/03 14:32:06;;;;;;;;;;;22.50;78.90;;;;;;5126335;27;19915;-53
2022/02/03 14:34:34;;;;;;;;;;;22.50;79.10;;;;;;5095641;28;20313;-60
2022/02/03 14:37:07;;;;;;;;;;;22.50;79.20;;;;;;5095591;28;19908;-59
2022/02/03 14:40:35;;;;;;;;;;;22.50;79.20;;;;;;5095541;28;20248;-59
2022/02/03 14:42:23;;;;;;;;;;;22.40;79.20;;;;;;5094598;28;19919;-60
2022/02/03 14:44:51;;;;;;;;;;;22.50;79.20;;;;;;5095404;28;19937;-57
2022/02/03 14:47:20;;;;;;;;;;;22.50;79.20;;;;;;5095329;28;19961;-59
2022/02/03 14:49:47;;;;;;;;;;;22.40;79.20;;;;;;5095867;28;19919;-57
2022/02/03 14:52:27;;;;;;;;;;;22.40;79.30;;;;;;5095580;28;19908;-60
2022/02/03 15:00:26;;;;;;;;;;;22.40;79.40;;;;;;5096582;28;20066;-55
2022/02/03 15:02:54;;;;;;;;;;;22.40;79.40;;;;;;5095330;28;19961;-56
2022/02/03 15:05:29;;;;;;;;;;;22.40;79.30;;;;;;5095810;28;20010;-56
2022/02/03 15:08:03;;;;;;;;;;;22.30;79.40;;;;;;5095295;28;19916;-54
2022/02/03 15:13:09;;;;;;;;;;;22.30;79.30;;;;;;5095724;28;19946;-56
2022/02/03 15:15:36;;;;;;;;;;;22.30;79.40;;;;;;5094879;28;19927;-58
2022/02/03 15:18:03;;;;;;;;;;;22.30;79.40;;;;;;5094706;28;20002;-59
2022/02/03 15:20:30;;;;;;;;;;;22.30;79.30;;;;;;5094676;28;19915;-54
2022/02/03 15:22:57;;;;;;;;;;;22.30;79.40;;;;;;5094858;28;20284;-49
2022/02/03 15:25:24;;;;;;;;;;;22.30;79.30;;;;;;5094386;28;19912;-51
2022/02/03 15:27:51;;;;;;;;;;;22.30;79.30;;;;;;5094198;28;19940;-53
2022/02/03 15:30:17;;;;;;;;;;;22.20;79.20;;;;;;5094323;28;19908;-54
2022/02/03 15:32:45;;;;;;;;;;;22.30;79.30;;;;;;5094251;28;19912;-50
2022/02/03 15:35:27;;;;;;;;;;;22.20;79.30;;;;;;5127187;27;19908;-55
2022/02/03 15:37:54;;;;;;;;;;;22.30;79.30;;;;;;5093969;28;20354;-55
2022/02/03 15:40:24;;;;;;;;;;;22.20;79.00;;;;;;5094203;28;19915;-51
2022/02/03 15:43:01;;;;;;;;;;;22.30;79.20;;;;;;5094063;28;19960;-50
2022/02/03 15:45:34;;;;;;;;;;;22.20;79.10;;;;;;5094168;28;20006;-58
2022/02/03 15:48:08;;;;;;;;;;;22.20;79.10;;;;;;5093917;28;19916;-53
2022/02/03 16:01:35;;;;;;;;;;;22.20;79.10;;;;;;5094118;28;19954;-55
2022/02/03 16:04:22;;;;;;;;;;;22.20;79.00;;;;;;5093447;28;19999;-57
2022/02/03 16:17:44;;;;;;;;;;;22.20;78.90;;;;;;5093619;28;20007;-60
2022/02/03 16:22:46;;;;;;;;;;;22.10;78.90;;;;;;5093182;28;19916;-53
2022/02/03 16:54:46;;;;;;;;;;;22.10;79.50;;;;;;5093462;28;20357;-57
2022/02/03 16:57:17;;;;;;;;;;;22.00;79.50;;;;;;5092959;28;20024;-59
2022/02/03 16:59:52;;;;;;;;;;;22.00;79.50;;;;;;5092870;28;20362;-56
2022/02/03 17:02:19;;;;;;;;;;;22.00;79.60;;;;;;5092779;28;19916;-56
2022/02/03 17:04:45;;;;;;;;;;;22.00;79.60;;;;;;5097160;28;20377;-55
2022/02/03 17:07:12;;;;;;;;;;;22.00;79.70;;;;;;5099670;28;20293;-59
2022/02/03 17:09:39;;;;;;;;;;;22.00;79.60;;;;;;5098242;28;19942;-56
2022/02/03 17:12:10;;;;;;;;;;;22.00;79.70;;;;;;5099278;28;19931;-55
2022/02/03 17:14:37;;;;;;;;;;;22.00;79.70;;;;;;5099240;28;19920;-52
2022/02/03 17:17:03;;;;;;;;;;;22.00;79.70;;;;;;5099401;28;19916;-55
2022/02/03 17:19:30;;;;;;;;;;;22.00;79.70;;;;;;5098262;28;19914;-59
2022/02/03 17:21:57;;;;;;;;;;;22.00;79.70;;;;;;5099195;28;19988;-57
2022/02/03 17:24:25;;;;;;;;;;;22.00;79.70;;;;;;5099239;28;19974;-55
2022/02/03 17:29:29;;;;;;;;;;;22.00;79.60;;;;;;5099504;28;20294;-54
2022/02/03 17:32:08;;;;;;;;;;;22.00;79.60;;;;;;5099131;28;19994;-58
2022/02/03 18:10:25;;;;;;;;;;;22.00;79.30;;;;;;5098921;28;19908;-48
2022/02/03 18:35:20;;;;;;;;;;;21.90;79.40;;;;;;5095825;28;20339;-53
2022/02/03 18:56:31;;;;;;;;;;;21.80;79.30;;;;;;5095215;28;19966;-60
2022/02/03 18:59:11;;;;;;;;;;;21.80;79.30;;;;;;5095138;28;19912;-59
2022/02/03 19:02:01;;;;;;;;;;;21.80;79.30;;;;;;5093488;28;19970;-56
2022/02/03 19:15:42;;;;;;;;;;;21.70;79.30;;;;;;5126098;27;20016;-57
2022/02/03 19:29:12;;;;;;;;;;;21.70;79.30;;;;;;5093405;28;19908;-54
2022/02/03 19:57:07;;;;;;;;;;;21.70;79.20;;;;;;5121976;27;20368;-51
2022/02/03 20:07:32;;;;;;;;;;;21.70;79.10;;;;;;5093963;28;19916;-53
2022/02/03 20:10:14;;;;;;;;;;;21.70;79.20;;;;;;5093510;28;20273;-55
2022/02/03 20:12:40;;;;;;;;;;;21.70;79.10;;;;;;5122352;27;19961;-49
2022/02/03 20:15:09;;;;;;;;;;;21.70;79.10;;;;;;5092295;28;19959;-52
2022/02/03 20:17:36;;;;;;;;;;;21.70;79.20;;;;;;5093689;28;19935;-52
2022/02/03 20:20:03;;;;;;;;;;;21.70;79.10;;;;;;5093403;28;19975;-48
2022/02/03 20:22:34;;;;;;;;;;;21.70;79.10;;;;;;5093419;28;19966;-55
2022/02/03 20:25:02;;;;;;;;;;;21.70;79.10;;;;;;5093016;28;19912;-53
2022/02/03 20:27:29;;;;;;;;;;;21.70;79.10;;;;;;5092889;28;20046;-57
2022/02/03 20:29:55;;;;;;;;;;;21.70;79.10;;;;;;5091595;28;19961;-53
2022/02/03 20:32:22;;;;;;;;;;;21.70;79.10;;;;;;5093321;28;20003;-56
2022/02/03 20:34:49;;;;;;;;;;;21.70;79.10;;;;;;5093246;28;20036;-51
2022/02/03 20:37:15;;;;;;;;;;;21.80;79.20;;;;;;5092733;28;20243;-53
2022/02/03 20:39:43;;;;;;;;;;;21.80;79.20;;;;;;5092244;28;19908;-56
2022/02/03 20:42:15;;;;;;;;;;;21.80;79.20;;;;;;5092812;28;19912;-56
2022/02/03 20:44:46;;;;;;;;;;;21.80;79.20;;;;;;5093047;28;20259;-51
2022/02/03 20:47:13;;;;;;;;;;;21.80;79.20;;;;;;5092821;28;20279;-50
2022/02/03 20:49:40;;;;;;;;;;;21.80;79.10;;;;;;5092753;28;20336;-54
2022/02/03 20:52:07;;;;;;;;;;;21.80;79.10;;;;;;5090947;28;19961;-50
2022/02/03 20:54:34;;;;;;;;;;;21.80;79.10;;;;;;5092717;28;19950;-51
2022/02/03 20:57:00;;;;;;;;;;;21.80;79.10;;;;;;5092673;28;19961;-53
2022/02/03 20:59:52;;;;;;;;;;;21.80;79.20;;;;;;5091711;28;19908;-57
2022/02/03 21:02:27;;;;;;;;;;;21.90;79.10;;;;;;5092373;28;20000;-55
2022/02/03 21:05:05;;;;;;;;;;;21.90;79.20;;;;;;5092429;28;19916;-56
2022/02/03 21:07:33;;;;;;;;;;;21.90;79.20;;;;;;5092319;28;19908;-59
2022/02/03 21:10:03;;;;;;;;;;;21.90;79.20;;;;;;5091828;28;19908;-51
2022/02/03 21:12:30;;;;;;;;;;;21.90;79.20;;;;;;5091665;28;19923;-53
2022/02/03 21:14:57;;;;;;;;;;;21.90;79.30;;;;;;5091920;28;20324;-56
2022/02/03 21:17:27;;;;;;;;;;;21.90;79.80;;;;;;5090928;28;19908;-54
2022/02/03 21:19:53;;;;;;;;;;;21.90;79.30;;;;;;5091703;28;19972;-53
2022/02/03 21:22:21;;;;;;;;;;;21.90;79.20;;;;;;5092007;28;19916;-56
2022/02/03 21:24:48;;;;;;;;;;;22.00;79.30;;;;;;5091985;28;19912;-58
2022/02/03 21:27:19;;;;;;;;;;;22.00;79.20;;;;;;5124610;28;19908;-60
2022/02/03 21:29:46;;;;;;;;;;;22.00;79.20;;;;;;5092113;28;20300;-57
2022/02/03 21:32:12;;;;;;;;;;;22.00;79.30;;;;;;5091925;28;19970;-58
2022/02/03 21:34:39;;;;;;;;;;;22.00;79.30;;;;;;5091780;28;20007;-57
2022/02/03 21:37:06;;;;;;;;;;;22.00;79.40;;;;;;5092162;28;19908;-55
2022/02/03 21:39:33;;;;;;;;;;;22.00;79.50;;;;;;5090424;28;19908;-52
2022/02/03 21:42:00;;;;;;;;;;;22.00;79.50;;;;;;5091943;28;20211;-60
2022/02/03 21:44:28;;;;;;;;;;;22.00;79.60;;;;;;5091953;28;20339;-54
2022/02/03 21:46:55;;;;;;;;;;;22.00;79.60;;;;;;5092233;28;19931;-60
2022/02/03 21:49:24;;;;;;;;;;;22.10;79.60;;;;;;5091567;28;19909;-56
2022/02/03 21:51:53;;;;;;;;;;;22.10;79.70;;;;;;5093123;28;20311;-57
2022/02/03 21:54:20;;;;;;;;;;;22.10;79.70;;;;;;5095571;28;19947;-56
2022/02/03 21:56:48;;;;;;;;;;;22.10;79.70;;;;;;5095916;28;19915;-59
2022/02/03 21:59:15;;;;;;;;;;;22.10;79.70;;;;;;5095862;28;19908;-59
2022/02/03 22:01:43;;;;;;;;;;;22.10;79.70;;;;;;5094170;28;19908;-55
2022/02/03 22:04:10;;;;;;;;;;;22.10;79.70;;;;;;5095135;28;19916;-56
2022/02/03 22:06:37;;;;;;;;;;;22.00;79.70;;;;;;5095761;28;20049;-52
2022/02/03 22:09:03;;;;;;;;;;;22.10;79.90;;;;;;5095617;28;19909;-58
2022/02/03 22:11:30;;;;;;;;;;;22.10;79.90;;;;;;5095954;28;20274;-53
2022/02/03 22:13:58;;;;;;;;;;;22.10;79.90;;;;;;5093941;28;20355;-55
2022/02/03 22:16:27;;;;;;;;;;;22.10;79.90;;;;;;5095697;28;19908;-58
2022/02/03 22:18:54;;;;;;;;;;;22.20;80.00;;;;;;5095805;28;19923;-61
2022/02/03 22:24:07;;;;;;;;;;;22.20;80.00;;;;;;5095285;28;19939;-55
2022/02/03 22:38:31;;;;;;;;;;;22.20;79.90;;;;;;5095118;28;19918;-51
2022/02/03 22:45:48;;;;;;;;;;;22.30;79.90;;;;;;5095342;28;19931;-52
2022/02/03 22:48:35;;;;;;;;;;;22.30;79.90;;;;;;5093954;28;20262;-57
2022/02/03 22:51:03;;;;;;;;;;;22.40;80.00;;;;;;5093548;28;20278;-57
2022/02/03 22:53:33;;;;;;;;;;;22.40;79.90;;;;;;5094420;28;20266;-61
2022/02/03 22:56:01;;;;;;;;;;;22.40;79.90;;;;;;5094601;28;19915;-60
2022/02/03 22:58:54;;;;;;;;;;;22.40;80.00;;;;;;5094713;28;19908;-60
2022/02/03 23:01:14;;;;;;;;;;;22.40;80.20;;;;;;5094294;28;19908;-58
2022/02/03 23:03:41;;;;;;;;;;;22.40;80.40;;;;;;5094068;28;20320;-56
2022/02/03 23:06:09;;;;;;;;;;;22.50;80.60;;;;;;5094267;28;19908;-58
2022/02/03 23:12:40;;;;;;;;;;;22.50;80.40;;;;;;5071423;28;19908;-58
2022/02/03 23:14:39;;;;;;;;;;;22.50;80.50;;;;;;5081483;28;19923;-53
2022/02/03 23:17:29;;;;;;;;;;;22.50;80.50;;;;;;5093817;28;19931;-60
2022/02/03 23:20:14;;;;;;;;;;;22.50;80.40;;;;;;5093546;28;19908;-57
2022/02/03 23:22:42;;;;;;;;;;;22.50;80.60;;;;;;5093739;28;19923;-56
2022/02/03 23:25:14;;;;;;;;;;;22.50;80.40;;;;;;5092651;28;20331;-59
2022/02/03 23:30:19;;;;;;;;;;;22.60;80.40;;;;;;5093841;28;20010;-53
2022/02/03 23:32:47;;;;;;;;;;;22.60;80.40;;;;;;5092675;28;19908;-55
2022/02/03 23:35:19;;;;;;;;;;;22.60;80.50;;;;;;5094107;28;19912;-55
2022/02/03 23:37:53;;;;;;;;;;;22.70;80.50;;;;;;5093836;28;19908;-60
2022/02/03 23:46:18;;;;;;;;;;;22.70;80.40;;;;;;5093998;28;20052;-52
